createdAt,value
2022-12-01T00:01:49.366Z,40.70
2022-12-01T00:04:37.143Z,40.83
2022-12-01T00:07:24.715Z,40.63
2022-12-01T00:10:27.220Z,42.67
2022-12-01T00:13:14.570Z,39.88
2022-12-01T00:16:17.848Z,43.10
2022-12-01T00:19:05.551Z,40.60
2022-12-01T00:21:52.942Z,43.92
2022-12-01T00:24:40.254Z,42.58
2022-12-01T00:27:27.663Z,41.17
2022-12-01T00:30:15.204Z,43.95
2022-12-01T00:33:02.570Z,45.88
2022-12-01T00:35:50.037Z,44.17
2022-12-01T00:38:37.503Z,42.20
2022-12-01T00:41:26.520Z,44.97
2022-12-01T00:44:14.033Z,41.45
2022-12-01T00:47:01.776Z,41.35
2022-12-01T00:49:49.414Z,42.95
2022-12-01T00:52:36.925Z,42.75
2022-12-01T00:55:24.359Z,40.83
2022-12-01T00:58:12.223Z,41.13
2022-12-01T01:01:01.781Z,41.17
2022-12-01T01:03:49.417Z,41.95
2022-12-01T01:06:37.539Z,42.70
2022-12-01T01:09:26.206Z,42.78
2022-12-01T01:12:13.815Z,38.40
2022-12-01T01:15:01.361Z,41.30
2022-12-01T01:17:48.792Z,41.13
2022-12-01T01:20:36.209Z,39.35
2022-12-01T01:23:24.133Z,39.88
2022-12-01T01:26:17.907Z,42.50
2022-12-01T01:29:09.126Z,41.30
2022-12-01T01:31:56.462Z,39.23
2022-12-01T01:34:44.014Z,38.45
2022-12-01T01:37:31.538Z,38.88
2022-12-01T01:40:22.558Z,41.15
2022-12-01T01:43:16.355Z,39.53
2022-12-01T01:46:06.178Z,41.63
2022-12-01T01:49:02.281Z,41.88
2022-12-01T01:51:52.696Z,40.45
2022-12-01T01:54:44.463Z,40.08
2022-12-01T01:57:34.005Z,37.60
2022-12-01T02:00:22.120Z,38.83
2022-12-01T02:03:12.349Z,36.65
2022-12-01T02:06:04.894Z,35.20
2022-12-01T02:08:52.836Z,35.85
2022-12-01T02:11:52.072Z,37.85
2022-12-01T02:14:57.229Z,36.53
2022-12-01T02:18:25.355Z,38.55
2022-12-01T02:21:40.553Z,36.53
2022-12-01T02:24:51.621Z,35.85
2022-12-01T02:27:57.185Z,38.70
2022-12-01T02:30:50.830Z,36.10
2022-12-01T02:33:57.516Z,36.70
2022-12-01T02:37:23.500Z,36.75
2022-12-01T02:40:18.288Z,40.53
2022-12-01T02:43:31.283Z,39.10
2022-12-01T02:46:50.051Z,39.60
2022-12-01T02:49:45.297Z,38.63
2022-12-01T02:52:34.663Z,37.00
2022-12-01T02:55:22.254Z,37.80
2022-12-01T02:58:15.767Z,37.53
2022-12-01T03:01:42.393Z,36.35
2022-12-01T03:04:56.176Z,36.28
2022-12-01T03:08:02.727Z,36.65
2022-12-01T03:10:56.276Z,40.45
2022-12-01T03:14:11.789Z,37.38
2022-12-01T03:17:05.180Z,38.42
2022-12-01T03:20:11.833Z,40.63
2022-12-01T03:23:16.350Z,38.58
2022-12-01T03:26:16.309Z,37.72
2022-12-01T03:29:08.441Z,36.50
2022-12-01T03:32:03.398Z,38.20
2022-12-01T03:35:05.801Z,38.13
2022-12-01T03:38:14.754Z,39.25
2022-12-01T03:41:12.279Z,38.65
2022-12-01T03:44:17.916Z,42.35
2022-12-01T03:47:14.886Z,41.17
2022-12-01T03:50:04.312Z,41.17
2022-12-01T03:53:30.343Z,38.00
2022-12-01T03:56:21.318Z,39.35
2022-12-01T03:59:10.263Z,37.95
2022-12-01T04:01:58.321Z,39.35
2022-12-01T04:04:45.754Z,36.65
2022-12-01T04:07:36.144Z,38.47
2022-12-01T04:10:23.713Z,37.20
2022-12-01T04:13:23.517Z,39.10
2022-12-01T04:16:11.194Z,38.90
2022-12-01T04:18:58.614Z,38.90
2022-12-01T04:21:46.231Z,39.95
2022-12-01T04:24:33.614Z,41.17
2022-12-01T04:27:21.496Z,40.28
2022-12-01T04:30:09.475Z,41.60
2022-12-01T04:32:57.972Z,40.97
2022-12-01T04:35:45.384Z,38.10
2022-12-01T04:38:32.905Z,43.47
2022-12-01T04:41:20.496Z,42.20
2022-12-01T04:44:10.122Z,40.78
2022-12-01T04:47:08.147Z,38.55
2022-12-01T04:49:55.614Z,40.70
2022-12-01T04:52:43.090Z,40.47
2022-12-01T04:55:30.733Z,40.78
2022-12-01T04:58:18.169Z,39.67
2022-12-01T05:01:11.858Z,40.40
2022-12-01T05:03:59.340Z,39.72
2022-12-01T05:06:46.809Z,39.22
2022-12-01T05:09:34.254Z,42.38
2022-12-01T05:12:21.684Z,41.47
2022-12-01T05:15:09.508Z,42.72
2022-12-01T05:17:57.181Z,39.60
2022-12-01T05:20:59.502Z,38.72
2022-12-01T05:23:47.038Z,39.83
2022-12-01T05:26:34.719Z,40.03
2022-12-01T05:29:22.070Z,39.40
2022-12-01T05:32:09.810Z,39.05
2022-12-01T05:34:57.394Z,38.88
2022-12-01T05:37:44.904Z,39.10
2022-12-01T05:40:34.455Z,38.65
2022-12-01T05:43:28.594Z,37.28
2022-12-01T05:46:16.978Z,36.55
2022-12-01T05:49:05.596Z,36.00
2022-12-01T05:51:53.046Z,38.28
2022-12-01T05:54:40.608Z,38.67
2022-12-01T05:57:27.966Z,37.72
2022-12-01T06:00:15.907Z,38.30
2022-12-01T06:03:03.532Z,36.00
2022-12-01T06:05:51.224Z,36.95
2022-12-01T06:08:38.736Z,36.95
2022-12-01T06:11:26.069Z,35.60
2022-12-01T06:14:13.420Z,37.78
2022-12-01T06:17:00.868Z,36.47
2022-12-01T06:19:48.614Z,38.13
2022-12-01T06:22:36.459Z,39.00
2022-12-01T06:25:24.267Z,40.08
2022-12-01T06:28:11.813Z,40.25
2022-12-01T06:31:03.164Z,41.63
2022-12-01T06:36:38.578Z,37.30
2022-12-01T06:39:25.982Z,40.80
2022-12-01T06:42:13.350Z,38.90
2022-12-01T06:45:00.682Z,36.08
2022-12-01T06:47:48.813Z,41.22
2022-12-01T06:50:36.155Z,38.53
2022-12-01T06:53:23.578Z,38.08
2022-12-01T06:56:11.117Z,43.63
2022-12-01T06:58:58.934Z,39.38
2022-12-01T07:01:46.909Z,38.85
2022-12-01T07:04:34.410Z,35.25
2022-12-01T07:07:21.722Z,38.17
2022-12-01T07:10:10.912Z,35.72
2022-12-01T07:12:58.412Z,38.10
2022-12-01T07:15:46.333Z,35.10
2022-12-01T07:18:34.987Z,32.55
2022-12-01T07:21:22.838Z,35.92
2022-12-01T07:24:12.957Z,33.97
2022-12-01T07:27:00.736Z,36.25
2022-12-01T07:29:48.695Z,38.08
2022-12-01T07:32:37.621Z,35.03
2022-12-01T07:35:25.054Z,35.88
2022-12-01T07:38:15.562Z,35.38
2022-12-01T07:41:09.493Z,34.80
2022-12-01T07:43:56.841Z,37.70
2022-12-01T07:46:44.205Z,39.00
2022-12-01T07:49:31.569Z,36.22
2022-12-01T07:52:19.094Z,37.20
2022-12-01T07:55:06.834Z,40.35
2022-12-01T07:57:54.139Z,35.92
2022-12-01T08:00:44.351Z,37.20
2022-12-01T08:03:35.125Z,36.90
2022-12-01T08:06:24.218Z,34.33
2022-12-01T08:09:12.136Z,35.00
2022-12-01T08:11:59.611Z,32.22
2022-12-01T08:14:47.666Z,31.75
2022-12-01T08:17:35.323Z,32.35
2022-12-01T08:20:24.365Z,29.25
2022-12-01T08:23:13.281Z,29.35
2022-12-01T08:26:05.833Z,30.85
2022-12-01T08:28:53.912Z,26.35
2022-12-01T08:31:41.566Z,27.88
2022-12-01T08:34:29.046Z,28.05
2022-12-01T08:37:16.502Z,27.60
2022-12-01T08:40:04.538Z,27.42
2022-12-01T08:42:52.468Z,27.48
2022-12-01T08:45:39.982Z,26.10
2022-12-01T08:48:30.061Z,28.23
2022-12-01T08:51:19.216Z,31.17
2022-12-01T08:54:06.908Z,32.78
2022-12-01T08:56:54.266Z,30.65
2022-12-01T08:59:41.778Z,31.02
2022-12-01T09:02:29.383Z,30.65
2022-12-01T09:05:17.169Z,28.02
2022-12-01T09:08:23.167Z,34.05
2022-12-01T09:11:13.808Z,32.42
2022-12-01T09:14:01.791Z,32.67
2022-12-01T09:16:50.600Z,30.85
2022-12-01T09:19:40.947Z,32.22
2022-12-01T09:22:28.485Z,35.28
2022-12-01T09:25:16.292Z,35.78
2022-12-01T09:28:03.881Z,34.92
2022-12-01T09:30:51.403Z,39.33
2022-12-01T09:33:39.370Z,41.65
2022-12-01T09:36:28.031Z,38.22
2022-12-01T09:39:22.448Z,41.45
2022-12-01T09:42:15.982Z,40.08
2022-12-01T09:45:05.092Z,39.45
2022-12-01T09:47:55.681Z,41.75
2022-12-01T09:50:43.825Z,41.08
2022-12-01T09:53:31.976Z,42.92
2022-12-01T09:56:23.594Z,40.45
2022-12-01T09:59:18.654Z,40.30
2022-12-01T10:02:27.961Z,41.03
2022-12-01T10:05:20.251Z,42.38
2022-12-01T10:08:16.644Z,41.95
2022-12-01T10:11:17.083Z,35.42
2022-12-01T10:14:09.318Z,33.70
2022-12-01T10:17:11.812Z,33.58
2022-12-01T10:20:06.757Z,36.55
2022-12-01T10:23:36.175Z,33.47
2022-12-01T10:26:44.536Z,33.80
2022-12-01T10:29:48.331Z,33.70
2022-12-01T10:32:45.821Z,35.55
2022-12-01T10:35:39.364Z,33.90
2022-12-01T10:38:35.660Z,35.38
2022-12-01T10:41:24.989Z,40.03
2022-12-01T10:44:20.275Z,33.50
2022-12-01T10:47:20.576Z,39.97
2022-12-01T10:50:08.829Z,37.53
2022-12-01T10:52:56.249Z,34.63
2022-12-01T10:55:47.920Z,32.67
2022-12-01T11:01:49.910Z,33.97
2022-12-01T11:04:51.149Z,29.67
2022-12-01T11:07:48.150Z,29.25
2022-12-01T11:10:37.581Z,26.08
2022-12-01T11:13:28.702Z,27.48
2022-12-01T11:16:46.885Z,27.03
2022-12-01T11:19:34.902Z,25.88
2022-12-01T11:22:32.456Z,26.08
2022-12-01T11:25:22.971Z,26.00
2022-12-01T11:28:20.816Z,25.40
2022-12-01T11:31:10.915Z,25.70
2022-12-01T11:33:58.284Z,27.73
2022-12-01T11:36:50.175Z,26.55
2022-12-01T11:39:40.469Z,23.33
2022-12-01T11:42:33.580Z,26.52
2022-12-01T11:45:20.814Z,29.70
2022-12-01T11:48:15.433Z,27.45
2022-12-01T11:51:18.055Z,26.20
2022-12-01T11:54:22.319Z,24.25
2022-12-01T11:57:33.068Z,22.92
2022-12-01T12:00:23.684Z,23.20
2022-12-01T12:04:02.169Z,22.67
2022-12-01T12:07:28.624Z,22.10
2022-12-01T12:10:16.344Z,22.55
2022-12-01T12:13:17.007Z,22.65
2022-12-01T12:16:16.795Z,24.58
2022-12-01T12:19:13.718Z,26.85
2022-12-01T12:22:28.956Z,22.17
2022-12-01T12:25:34.501Z,24.55
2022-12-01T12:28:24.832Z,24.35
2022-12-01T12:31:15.207Z,23.80
2022-12-01T12:34:17.013Z,24.83
2022-12-01T12:37:24.407Z,22.95
2022-12-01T12:40:24.732Z,24.23
2022-12-01T12:43:22.511Z,27.33
2022-12-01T12:46:37.522Z,26.63
2022-12-01T12:49:30.874Z,26.98
2022-12-01T12:52:24.188Z,26.90
2022-12-01T12:55:12.425Z,24.58
2022-12-01T12:58:14.482Z,25.00
2022-12-01T13:01:15.983Z,26.73
2022-12-01T13:04:22.112Z,26.10
2022-12-01T13:07:23.293Z,24.85
2022-12-01T13:10:23.430Z,24.38
2022-12-01T13:13:31.324Z,24.25
2022-12-01T13:16:23.973Z,26.70
2022-12-01T13:19:31.080Z,25.90
2022-12-01T13:22:34.581Z,27.30
2022-12-01T13:25:29.640Z,25.20
2022-12-01T13:28:29.082Z,28.63
2022-12-01T13:31:18.226Z,25.30
2022-12-01T13:34:05.983Z,24.42
2022-12-01T13:36:55.441Z,24.90
2022-12-01T13:39:45.037Z,26.98
2022-12-01T13:42:34.295Z,24.65
2022-12-01T13:45:22.505Z,26.52
2022-12-01T13:48:45.417Z,27.80
2022-12-01T13:52:20.480Z,27.77
2022-12-01T13:55:07.753Z,28.25
2022-12-01T13:57:58.063Z,27.02
2022-12-01T14:00:46.214Z,27.65
2022-12-01T14:03:40.021Z,25.50
2022-12-01T14:06:46.624Z,26.33
2022-12-01T14:09:38.611Z,27.60
2022-12-01T14:15:33.355Z,26.13
2022-12-01T14:18:42.396Z,26.63
2022-12-01T14:21:47.692Z,25.80
2022-12-01T14:24:37.952Z,28.38
2022-12-01T14:27:43.236Z,29.05
2022-12-01T14:30:39.491Z,27.65
2022-12-01T14:33:39.157Z,29.63
2022-12-01T14:36:41.353Z,25.75
2022-12-01T14:42:49.567Z,25.27
2022-12-01T14:45:46.318Z,25.10
2022-12-01T14:48:45.533Z,28.38
2022-12-01T14:51:36.566Z,28.10
2022-12-01T14:54:33.095Z,27.83
2022-12-01T14:57:24.679Z,29.65
2022-12-01T15:00:19.689Z,27.23
2022-12-01T15:03:09.837Z,27.52
2022-12-01T15:05:57.256Z,26.95
2022-12-01T15:08:58.305Z,30.20
2022-12-01T15:12:02.774Z,26.80
2022-12-01T15:14:51.318Z,27.00
2022-12-01T15:17:39.266Z,26.05
2022-12-01T15:20:30.581Z,28.40
2022-12-01T15:23:18.472Z,27.70
2022-12-01T15:26:07.272Z,30.65
2022-12-01T15:29:19.273Z,29.15
2022-12-01T15:32:11.362Z,28.23
2022-12-01T15:37:50.760Z,30.23
2022-12-01T15:43:54.974Z,27.83
2022-12-01T15:46:42.811Z,28.80
2022-12-01T15:49:32.959Z,28.27
2022-12-01T15:52:21.822Z,31.05
2022-12-01T15:55:25.723Z,29.08
2022-12-01T15:58:30.414Z,29.95
2022-12-01T16:01:20.760Z,31.48
2022-12-01T16:04:26.787Z,31.13
2022-12-01T16:07:14.762Z,32.60
2022-12-01T16:10:03.725Z,32.58
2022-12-01T16:12:51.114Z,36.50
2022-12-01T16:15:43.928Z,34.90
2022-12-01T16:18:33.065Z,34.17
2022-12-01T16:21:22.013Z,33.45
2022-12-01T16:24:15.094Z,31.23
2022-12-01T16:27:16.530Z,33.72
2022-12-01T16:30:19.697Z,33.03
2022-12-01T16:33:17.113Z,32.60
2022-12-01T16:36:06.836Z,32.78
2022-12-01T16:38:54.277Z,34.53
2022-12-01T16:41:45.028Z,35.47
2022-12-01T16:44:32.601Z,38.58
2022-12-01T16:47:25.077Z,36.78
2022-12-01T16:50:17.900Z,32.70
2022-12-01T16:53:05.267Z,33.38
2022-12-01T16:56:01.676Z,31.38
2022-12-01T16:58:49.493Z,33.50
2022-12-01T17:01:37.265Z,31.48
2022-12-01T17:04:24.648Z,29.90
2022-12-01T17:07:12.130Z,29.60
2022-12-01T17:09:59.557Z,27.85
2022-12-01T17:12:47.044Z,27.55
2022-12-01T17:15:34.552Z,28.63
2022-12-01T17:18:23.798Z,29.08
2022-12-01T17:21:11.689Z,29.77
2022-12-01T17:23:59.296Z,34.13
2022-12-01T17:26:46.639Z,28.35
2022-12-01T17:29:45.768Z,28.25
2022-12-01T17:32:33.908Z,30.17
2022-12-01T17:35:21.186Z,26.80
2022-12-01T17:38:08.521Z,29.58
2022-12-01T17:41:07.656Z,28.80
2022-12-01T17:43:55.039Z,29.15
2022-12-01T17:46:42.427Z,29.38
2022-12-01T17:49:29.864Z,30.98
2022-12-01T17:52:17.601Z,28.10
2022-12-01T17:55:05.393Z,27.88
2022-12-01T17:57:52.927Z,27.92
2022-12-01T18:00:40.671Z,28.38
2022-12-01T18:03:28.119Z,27.02
2022-12-01T18:06:16.990Z,28.77
2022-12-01T18:09:04.692Z,29.58
2022-12-01T18:11:55.212Z,24.58
2022-12-01T18:14:42.639Z,24.33
2022-12-01T18:17:30.016Z,25.45
2022-12-01T18:20:18.693Z,25.98
2022-12-01T18:23:06.141Z,25.25
2022-12-01T18:25:53.463Z,24.60
2022-12-01T18:28:41.412Z,24.65
2022-12-01T18:31:30.598Z,24.48
2022-12-01T18:34:18.161Z,24.00
2022-12-01T18:37:06.110Z,27.02
2022-12-01T18:39:56.389Z,23.75
2022-12-01T18:42:43.740Z,25.60
2022-12-01T18:45:31.165Z,25.08
2022-12-01T18:48:18.543Z,26.13
2022-12-01T18:51:08.123Z,25.10
2022-12-01T18:53:57.793Z,24.88
2022-12-01T18:56:45.399Z,24.13
2022-12-01T18:59:32.882Z,24.27
2022-12-01T19:02:20.339Z,24.10
2022-12-01T19:05:09.204Z,24.90
2022-12-01T19:07:58.137Z,26.65
2022-12-01T19:10:45.584Z,26.40
2022-12-01T19:13:33.800Z,25.35
2022-12-01T19:16:21.671Z,27.75
2022-12-01T19:19:09.668Z,26.40
2022-12-01T19:21:57.028Z,26.85
2022-12-01T19:24:49.865Z,29.58
2022-12-01T19:27:38.092Z,26.73
2022-12-01T19:30:25.442Z,31.73
2022-12-01T19:33:12.741Z,24.80
2022-12-01T19:36:09.910Z,27.27
2022-12-01T19:38:57.974Z,27.50
2022-12-01T19:41:45.662Z,25.23
2022-12-01T19:44:33.116Z,27.50
2022-12-01T19:47:22.388Z,28.10
2022-12-01T19:50:10.404Z,28.73
2022-12-01T19:52:57.915Z,26.90
2022-12-01T19:55:45.299Z,27.20
2022-12-01T19:58:35.884Z,28.25
2022-12-01T20:01:26.566Z,27.50
2022-12-01T20:04:14.054Z,26.40
2022-12-01T20:07:02.100Z,27.58
2022-12-01T20:09:50.315Z,26.17
2022-12-01T20:12:38.199Z,25.75
2022-12-01T20:15:26.823Z,27.45
2022-12-01T20:18:16.123Z,24.02
2022-12-01T20:21:09.928Z,26.52
2022-12-01T20:24:00.352Z,27.40
2022-12-01T20:26:51.931Z,24.67
2022-12-01T20:29:39.389Z,23.42
2022-12-01T20:32:27.548Z,25.13
2022-12-01T20:35:15.733Z,28.55
2022-12-01T20:38:04.924Z,24.33
2022-12-01T20:40:53.120Z,27.98
2022-12-01T20:43:40.913Z,24.92
2022-12-01T20:46:28.441Z,29.58
2022-12-01T20:49:17.520Z,28.35
2022-12-01T20:52:05.081Z,28.80
2022-12-01T20:54:52.833Z,28.55
2022-12-01T20:57:40.302Z,28.70
2022-12-01T21:00:27.920Z,27.00
2022-12-01T21:03:15.347Z,26.48
2022-12-01T21:06:04.199Z,29.98
2022-12-01T21:08:52.886Z,27.77
2022-12-01T21:12:07.514Z,29.83
2022-12-01T21:15:20.220Z,33.95
2022-12-01T21:18:23.869Z,34.60
2022-12-01T21:21:27.501Z,34.10
2022-12-01T21:24:28.507Z,34.97
2022-12-01T21:27:20.260Z,34.75
2022-12-01T21:30:19.156Z,35.15
2022-12-01T21:33:21.218Z,34.50
2022-12-01T21:36:21.861Z,35.88
2022-12-01T21:39:15.083Z,35.92
2022-12-01T21:42:16.858Z,33.00
2022-12-01T21:45:14.244Z,30.00
2022-12-01T21:48:16.060Z,30.10
2022-12-01T21:51:20.593Z,28.85
2022-12-01T21:54:14.175Z,29.38
2022-12-01T21:57:02.006Z,28.70
2022-12-01T21:59:49.474Z,27.50
2022-12-01T22:02:58.762Z,29.05
2022-12-01T22:06:06.894Z,27.58
2022-12-01T22:08:59.747Z,25.08
2022-12-01T22:11:52.201Z,23.60
2022-12-01T22:14:39.961Z,26.58
2022-12-01T22:17:31.008Z,25.88
2022-12-01T22:20:22.869Z,25.00
2022-12-01T22:23:13.603Z,27.88
2022-12-01T22:26:01.469Z,27.58
2022-12-01T22:28:55.370Z,26.20
2022-12-01T22:31:42.872Z,25.25
2022-12-01T22:34:30.630Z,27.92
2022-12-01T22:37:23.023Z,27.52
2022-12-01T22:40:37.935Z,25.92
2022-12-01T22:43:32.306Z,27.45
2022-12-01T22:46:37.568Z,27.90
2022-12-01T22:49:25.535Z,26.50
2022-12-01T22:52:22.596Z,26.30
2022-12-01T22:55:15.828Z,28.95
2022-12-01T22:58:23.840Z,29.02
2022-12-01T23:01:26.339Z,24.70
2022-12-01T23:04:27.011Z,25.30
2022-12-01T23:07:36.807Z,26.67
2022-12-01T23:10:35.198Z,28.02
2022-12-01T23:13:24.819Z,27.50
2022-12-01T23:16:12.335Z,25.95
2022-12-01T23:19:01.254Z,27.17
2022-12-01T23:21:48.650Z,27.35
2022-12-01T23:24:36.002Z,30.17
2022-12-01T23:27:23.308Z,27.13
2022-12-01T23:30:12.457Z,29.73
2022-12-01T23:33:13.616Z,30.30
2022-12-01T23:36:00.871Z,27.20
2022-12-01T23:38:54.890Z,29.67
2022-12-01T23:41:45.354Z,28.98
2022-12-01T23:44:42.612Z,30.40
2022-12-01T23:47:30.583Z,28.40
2022-12-01T23:50:26.443Z,29.92
2022-12-01T23:53:25.370Z,28.48
2022-12-01T23:56:18.803Z,28.73
2022-12-01T23:59:12.220Z,31.88
